createdAt,value
2019-03-25T00:04:50.206Z,80.20
2019-03-25T00:09:56.176Z,81.10
2019-03-25T00:15:00.894Z,82.00
2019-03-25T00:20:07.120Z,82.20
2019-03-25T00:25:11.938Z,82.70
2019-03-25T00:30:16.962Z,82.20
2019-03-25T00:35:22.040Z,82.30
2019-03-25T00:40:26.778Z,81.80
2019-03-25T00:45:31.528Z,82.20
2019-03-25T00:50:36.578Z,81.30
2019-03-25T00:55:41.392Z,80.40
2019-03-25T01:00:46.667Z,80.80
2019-03-25T01:05:51.794Z,79.60
2019-03-25T01:10:56.766Z,79.20
2019-03-25T01:16:01.815Z,78.50
2019-03-25T01:21:06.635Z,78.70
2019-03-25T01:26:11.608Z,79.00
2019-03-25T01:31:16.656Z,78.80
2019-03-25T01:36:21.687Z,78.10
2019-03-25T01:41:27.653Z,79.10
2019-03-25T01:46:32.419Z,78.30
2019-03-25T01:51:37.159Z,78.90
2019-03-25T01:56:41.903Z,79.50
2019-03-25T02:01:46.646Z,79.60
2019-03-25T02:06:53.102Z,79.80
2019-03-25T02:11:57.986Z,79.40
2019-03-25T02:17:02.792Z,79.20
2019-03-25T02:22:07.539Z,78.70
2019-03-25T02:27:12.274Z,79.10
2019-03-25T02:32:17.249Z,79.70
2019-03-25T02:37:22.079Z,79.80
2019-03-25T02:42:27.044Z,79.70
2019-03-25T02:47:31.782Z,80.20
2019-03-25T02:52:36.665Z,80.40
2019-03-25T02:57:41.393Z,80.90
2019-03-25T03:02:46.111Z,80.90
2019-03-25T03:07:50.960Z,81.20
2019-03-25T03:12:56.218Z,80.90
2019-03-25T03:18:01.293Z,81.10
2019-03-25T03:23:06.332Z,80.50
2019-03-25T03:28:11.074Z,80.90
2019-03-25T03:33:16.109Z,80.50
2019-03-25T03:38:20.886Z,81.00
2019-03-25T03:43:25.915Z,81.20
2019-03-25T03:48:30.660Z,81.10
2019-03-25T03:53:36.013Z,81.10
2019-03-25T03:58:42.599Z,81.10
2019-03-25T04:03:47.339Z,80.90
2019-03-25T04:08:52.064Z,80.70
2019-03-25T04:13:56.899Z,81.00
2019-03-25T04:19:01.873Z,80.30
2019-03-25T04:24:06.617Z,81.00
2019-03-25T04:29:11.367Z,81.10
2019-03-25T04:34:16.077Z,81.30
2019-03-25T04:39:20.844Z,81.30
2019-03-25T04:44:25.583Z,81.00
2019-03-25T04:49:30.325Z,80.90
2019-03-25T04:54:35.153Z,81.00
2019-03-25T04:59:40.117Z,81.20
2019-03-25T05:04:44.858Z,80.20
2019-03-25T05:09:49.600Z,79.90
2019-03-25T05:14:54.318Z,80.00
2019-03-25T05:19:59.396Z,80.30
2019-03-25T05:25:05.298Z,79.60
2019-03-25T05:30:11.817Z,79.40
2019-03-25T05:35:16.795Z,79.10
2019-03-25T05:40:21.744Z,79.10
2019-03-25T05:45:26.563Z,79.20
2019-03-25T05:50:31.389Z,79.00
2019-03-25T05:55:36.277Z,78.40
2019-03-25T06:00:41.322Z,77.30
2019-03-25T06:05:46.066Z,77.30
2019-03-25T06:10:51.152Z,76.90
2019-03-25T06:15:55.859Z,77.10
2019-03-25T06:21:00.915Z,76.70
2019-03-25T06:26:06.038Z,76.70
2019-03-25T06:31:11.617Z,75.90
2019-03-25T06:36:16.673Z,75.20
2019-03-25T06:41:21.490Z,74.60
2019-03-25T06:46:26.491Z,73.80
2019-03-25T06:51:31.515Z,73.40
2019-03-25T06:56:36.247Z,72.40
2019-03-25T07:01:40.989Z,72.60
2019-03-25T07:06:46.355Z,70.60
2019-03-25T07:24:44.308Z,72.30
2019-03-25T07:29:49.135Z,73.50
2019-03-25T07:34:54.100Z,73.20
2019-03-25T07:39:58.780Z,70.80
2019-03-25T07:45:05.735Z,72.30
2019-03-25T07:50:11.400Z,71.00
2019-03-25T07:55:16.452Z,69.90
2019-03-25T08:00:21.884Z,72.10
2019-03-25T08:05:26.625Z,71.80
2019-03-25T08:10:35.377Z,72.60
2019-03-25T08:15:40.073Z,74.60
2019-03-25T08:20:44.846Z,75.10
2019-03-25T08:25:49.814Z,77.50
2019-03-25T08:30:54.864Z,78.30
2019-03-25T08:35:59.912Z,78.20
2019-03-25T08:41:04.961Z,77.20
2019-03-25T08:46:10.011Z,76.10
2019-03-25T08:51:14.854Z,77.60
2019-03-25T08:56:19.804Z,75.60
2019-03-25T09:01:24.630Z,75.10
2019-03-25T09:06:30.010Z,72.30
2019-03-25T09:11:34.954Z,70.70
2019-03-25T09:16:39.697Z,72.40
2019-03-25T09:21:44.440Z,68.10
2019-03-25T09:26:49.258Z,69.20
2019-03-25T09:31:54.229Z,68.30
2019-03-25T09:36:59.255Z,68.50
2019-03-25T09:42:04.322Z,67.50
2019-03-25T09:47:09.150Z,69.20
2019-03-25T09:52:14.116Z,68.20
2019-03-25T09:57:19.617Z,67.40
2019-03-25T10:02:24.621Z,66.40
2019-03-25T10:07:29.875Z,65.90
2019-03-25T10:12:34.923Z,64.10
2019-03-25T10:17:39.742Z,65.40
2019-03-25T10:22:44.619Z,65.60
2019-03-25T10:27:50.072Z,67.00
2019-03-25T10:32:55.124Z,64.70
2019-03-25T10:37:59.865Z,63.00
2019-03-25T10:43:05.835Z,65.60
2019-03-25T10:48:10.882Z,60.00
2019-03-25T10:53:15.803Z,61.40
2019-03-25T10:58:20.954Z,62.40
2019-03-25T11:03:26.030Z,59.70
2019-03-25T11:08:31.084Z,59.50
2019-03-25T11:13:37.032Z,57.90
2019-03-25T11:18:41.766Z,56.90
2019-03-25T11:23:46.610Z,57.90
2019-03-25T11:28:51.459Z,57.60
2019-03-25T11:33:56.175Z,58.10
2019-03-25T11:39:01.077Z,57.00
2019-03-25T11:44:06.729Z,57.40
2019-03-25T11:49:11.760Z,58.10
2019-03-25T11:54:18.239Z,57.50
2019-03-25T11:59:23.415Z,57.30
2019-03-25T12:04:28.163Z,58.20
2019-03-25T12:09:32.897Z,57.00
2019-03-25T12:14:37.922Z,56.60
2019-03-25T12:19:42.995Z,57.40
2019-03-25T12:24:48.026Z,55.60
2019-03-25T12:29:52.790Z,55.20
2019-03-25T12:34:57.529Z,53.70
2019-03-25T12:40:02.358Z,53.80
2019-03-25T12:45:07.897Z,52.60
2019-03-25T12:50:13.599Z,54.00
2019-03-25T12:55:18.422Z,52.60
2019-03-25T13:00:43.355Z,51.60
2019-03-25T13:05:48.074Z,52.00
2019-03-25T13:10:53.123Z,50.60
2019-03-25T13:15:57.833Z,49.50
2019-03-25T13:21:02.631Z,47.90
2019-03-25T13:26:07.599Z,47.10
2019-03-25T13:31:12.388Z,49.10
2019-03-25T13:36:17.471Z,47.40
2019-03-25T13:41:22.522Z,47.10
2019-03-25T13:46:27.571Z,46.10
2019-03-25T13:51:32.413Z,47.80
2019-03-25T13:56:37.369Z,47.90
2019-03-25T14:01:42.423Z,48.20
2019-03-25T14:06:47.156Z,48.70
2019-03-25T14:11:51.872Z,48.10
2019-03-25T14:16:56.943Z,46.20
2019-03-25T14:22:01.659Z,48.10
2019-03-25T14:27:06.514Z,47.90
2019-03-25T14:32:11.480Z,47.50
2019-03-25T14:37:16.304Z,47.90
2019-03-25T14:42:21.304Z,49.50
2019-03-25T14:47:26.017Z,50.10
2019-03-25T14:52:31.038Z,47.60
2019-03-25T14:57:36.113Z,48.30
2019-03-25T15:02:41.156Z,47.30
2019-03-25T15:07:46.218Z,49.40
2019-03-25T15:12:50.949Z,51.10
2019-03-25T15:17:56.003Z,51.60
2019-03-25T15:23:01.023Z,51.70
2019-03-25T15:28:05.782Z,49.80
2019-03-25T15:33:10.530Z,50.80
2019-03-25T15:38:15.560Z,51.00
2019-03-25T15:43:20.320Z,53.00
2019-03-25T15:48:25.063Z,54.20
2019-03-25T15:53:29.804Z,55.00
2019-03-25T15:58:34.632Z,56.10
2019-03-25T16:03:39.595Z,56.50
2019-03-25T16:08:44.645Z,57.10
2019-03-25T16:13:49.820Z,58.20
2019-03-25T16:18:54.743Z,58.60
2019-03-25T16:23:59.772Z,58.80
2019-03-25T16:29:04.840Z,58.60
2019-03-25T16:34:09.890Z,58.30
2019-03-25T16:39:14.634Z,58.60
2019-03-25T16:44:19.680Z,58.90
2019-03-25T16:49:24.730Z,57.80
2019-03-25T16:54:29.474Z,59.80
2019-03-25T16:59:34.215Z,61.10
2019-03-25T17:04:39.270Z,62.60
2019-03-25T17:09:44.318Z,64.30
2019-03-25T17:14:49.364Z,65.10
2019-03-25T17:19:54.422Z,65.50
2019-03-25T17:24:59.167Z,67.00
2019-03-25T17:30:05.738Z,66.10
2019-03-25T17:35:10.786Z,65.20
2019-03-25T17:40:15.847Z,65.30
2019-03-25T17:45:20.891Z,67.00
2019-03-25T17:50:25.940Z,68.10
2019-03-25T17:55:30.675Z,70.80
2019-03-25T18:00:50.471Z,72.80
2019-03-25T18:05:55.522Z,73.60
2019-03-25T18:11:00.349Z,73.80
2019-03-25T18:16:05.431Z,73.60
2019-03-25T18:21:10.137Z,73.70
2019-03-25T18:26:14.981Z,73.90
2019-03-25T18:31:19.855Z,74.60
2019-03-25T18:36:24.894Z,75.50
2019-03-25T18:41:29.634Z,75.80
2019-03-25T18:46:34.690Z,76.70
2019-03-25T18:51:39.750Z,77.70
2019-03-25T18:56:44.790Z,78.60
2019-03-25T19:01:54.427Z,79.80
2019-03-25T19:06:56.110Z,80.50
2019-03-25T19:12:00.933Z,81.20
2019-03-25T19:17:05.902Z,80.60
2019-03-25T19:22:12.772Z,80.20
2019-03-25T19:27:17.611Z,80.10
2019-03-25T19:32:23.522Z,80.70
2019-03-25T19:37:28.352Z,82.00
2019-03-25T19:42:33.305Z,82.50
2019-03-25T19:47:38.353Z,81.50
2019-03-25T19:52:44.316Z,82.80
2019-03-25T19:57:49.390Z,84.50
2019-03-25T20:02:54.123Z,84.70
2019-03-25T20:07:59.156Z,85.60
2019-03-25T20:13:04.822Z,85.40
2019-03-25T20:18:09.869Z,85.40
2019-03-25T20:23:14.954Z,85.40
2019-03-25T20:28:19.814Z,86.20
2019-03-25T20:33:25.018Z,86.60
2019-03-25T20:38:30.054Z,86.60
2019-03-25T20:43:35.157Z,87.00
2019-03-25T20:48:40.066Z,87.70
2019-03-25T20:53:45.028Z,87.80
2019-03-25T20:58:49.946Z,88.00
2019-03-25T21:03:54.691Z,87.60
2019-03-25T21:08:59.760Z,88.20
2019-03-25T21:14:04.493Z,88.70
2019-03-25T21:19:09.584Z,88.70
2019-03-25T21:24:14.567Z,88.90
2019-03-25T21:29:19.738Z,89.00
2019-03-25T21:34:24.748Z,88.30
2019-03-25T21:39:30.656Z,87.20
2019-03-25T21:44:35.456Z,87.70
2019-03-25T21:49:40.447Z,87.10
2019-03-25T21:54:45.216Z,86.90
2019-03-25T21:59:50.302Z,86.50
2019-03-25T22:04:57.185Z,87.20
2019-03-25T22:10:01.887Z,87.60
2019-03-25T22:15:11.306Z,88.40
2019-03-25T22:20:16.554Z,87.80
2019-03-25T22:25:21.628Z,87.70
2019-03-25T22:30:26.678Z,89.20
2019-03-25T22:35:31.419Z,89.30
2019-03-25T22:40:36.469Z,88.60
2019-03-25T22:45:42.622Z,88.50
2019-03-25T22:50:47.488Z,87.80
2019-03-25T22:55:52.538Z,87.90
2019-03-25T23:00:57.863Z,88.00
2019-03-25T23:06:02.720Z,89.20
2019-03-25T23:11:07.687Z,89.40
2019-03-25T23:16:12.405Z,88.90
2019-03-25T23:21:17.146Z,89.40
2019-03-25T23:26:21.990Z,88.90
2019-03-25T23:31:26.834Z,88.80
2019-03-25T23:36:31.704Z,87.60
2019-03-25T23:41:36.753Z,88.00
2019-03-25T23:46:42.109Z,88.10
2019-03-25T23:51:47.157Z,88.00
2019-03-25T23:56:51.901Z,87.90
